Route Details

Aircraft Information
Group: European Fleet
Types: A30F, A31F, B738
Route Data
Distance: 584nm
Duration: 1h 50m
Origin METAR: LIRF 181720Z 17006KT CAVOK 30/22 Q1007 NOSIG
Dest. METAR: EDDK 181720Z AUTO 36005KT 340V040 CAVOK 25/15 Q1012 NOSIG
Freight Data
(for Aug 18, 2022)
Load Factor:
40%
Manifested Cargo: 21,789lbs
Financial History
Total Freight: 152,509lbs
Average Load: 0lbs/flt
Fuel Used: 83,493lbs
Avg. Fuel Used: 0lbs/flt
Fuel Expense: $35,742
Avg. Fuel Expense: $0
Avg. Fuel Cost: $0/lbs
Total Gross Income: $295,572
Pilot Pay: $1,115
Total Expenses: $50,685
Total Revenue: $206,735
Average Revenue: $0

Capitol Logistics 570




LIRF
Leonardo da Vinci International Airport
Rome, IT
EDDK
Cologne Bonn Airport
Cologne, DE